createdAt,value
2018-07-08T00:02:24.657Z,12.60
2018-07-08T00:04:55.681Z,12.60
2018-07-08T00:07:25.473Z,12.60
2018-07-08T00:09:56.369Z,12.60
2018-07-08T00:12:27.177Z,12.40
2018-07-08T00:14:56.081Z,12.30
2018-07-08T00:17:25.913Z,12.30
2018-07-08T00:19:56.773Z,12.20
2018-07-08T00:22:27.649Z,12.30
2018-07-08T00:24:57.498Z,12.40
2018-07-08T00:27:28.269Z,12.40
2018-07-08T00:30:02.956Z,12.40
2018-07-08T00:32:32.845Z,12.40
2018-07-08T00:35:02.664Z,12.40
2018-07-08T00:37:39.313Z,12.40
2018-07-08T00:40:11.790Z,12.30
2018-07-08T00:42:51.983Z,12.30
2018-07-08T00:45:27.217Z,12.20
2018-07-08T00:48:01.581Z,12.10
2018-07-08T00:50:31.513Z,12.00
2018-07-08T00:53:04.883Z,11.90
2018-07-08T00:55:33.701Z,11.90
2018-07-08T00:58:06.763Z,11.80
2018-07-08T01:00:37.670Z,11.70
2018-07-08T01:03:10.168Z,11.60
2018-07-08T01:05:40.009Z,11.60
2018-07-08T01:08:09.828Z,11.60
2018-07-08T01:10:50.548Z,11.70
2018-07-08T01:13:19.336Z,11.70
2018-07-08T01:15:49.201Z,11.70
2018-07-08T01:18:18.084Z,11.70
2018-07-08T01:20:52.596Z,11.70
2018-07-08T01:23:23.445Z,11.70
2018-07-08T01:26:03.505Z,11.70
2018-07-08T01:28:36.853Z,11.80
2018-07-08T01:31:06.025Z,11.80
2018-07-08T01:33:36.937Z,11.80
2018-07-08T01:36:10.337Z,11.70
2018-07-08T01:38:40.266Z,11.70
2018-07-08T01:41:13.609Z,11.70
2018-07-08T01:43:42.409Z,11.70
2018-07-08T01:46:11.312Z,11.70
2018-07-08T01:48:46.760Z,11.70
2018-07-08T01:51:15.780Z,11.70
2018-07-08T01:53:44.848Z,11.60
2018-07-08T01:56:17.388Z,11.50
2018-07-08T01:58:47.329Z,11.50
2018-07-08T02:01:16.227Z,11.50
2018-07-08T02:03:52.820Z,11.50
2018-07-08T02:06:23.648Z,11.60
2018-07-08T02:08:58.168Z,11.60
2018-07-08T02:11:31.136Z,11.70
2018-07-08T02:13:59.996Z,11.70
2018-07-08T02:16:38.454Z,11.80
2018-07-08T02:19:08.225Z,11.90
2018-07-08T02:21:41.892Z,11.80
2018-07-08T02:24:17.184Z,11.70
2018-07-08T02:26:46.089Z,11.50
2018-07-08T02:29:15.889Z,11.30
2018-07-08T02:31:46.617Z,11.20
2018-07-08T02:36:51.736Z,11.10
2018-07-08T02:39:26.773Z,11.10
2018-07-08T02:41:56.632Z,10.90
2018-07-08T02:44:26.404Z,10.80
2018-07-08T02:46:55.669Z,10.60
2018-07-08T02:49:25.563Z,10.40
2018-07-08T02:52:01.827Z,10.40
2018-07-08T02:54:40.573Z,10.30
2018-07-08T02:57:09.425Z,10.30
2018-07-08T02:59:42.005Z,10.40
2018-07-08T03:02:17.560Z,10.40
2018-07-08T03:04:52.095Z,10.40
2018-07-08T03:07:20.925Z,10.40
2018-07-08T03:09:49.741Z,10.40
2018-07-08T03:12:21.605Z,10.50
2018-07-08T03:14:50.505Z,10.50
2018-07-08T03:17:23.381Z,10.60
2018-07-08T03:19:52.281Z,10.70
2018-07-08T03:22:26.893Z,10.70
2018-07-08T03:24:55.777Z,10.70
2018-07-08T03:30:09.124Z,10.70
2018-07-08T03:32:38.029Z,10.70
2018-07-08T03:35:13.560Z,10.60
2018-07-08T03:37:42.448Z,10.70
2018-07-08T03:40:19.345Z,10.70
2018-07-08T03:42:56.920Z,10.70
2018-07-08T03:45:35.328Z,10.60
2018-07-08T03:48:04.156Z,10.60
2018-07-08T03:50:33.012Z,10.60
2018-07-08T03:53:13.784Z,10.70
2018-07-08T03:55:44.624Z,10.70
2018-07-08T03:58:13.520Z,10.80
2018-07-08T04:00:46.712Z,10.80
2018-07-08T04:03:33.832Z,10.80
2018-07-08T04:06:21.372Z,10.90
2018-07-08T04:08:50.152Z,10.90
2018-07-08T04:11:23.090Z,10.90
2018-07-08T04:13:58.484Z,11.00
2018-07-08T04:19:35.288Z,11.10
2018-07-08T04:22:14.120Z,11.20
2018-07-08T04:24:49.452Z,11.30
2018-07-08T04:27:18.299Z,11.40
2018-07-08T04:29:51.484Z,11.50
2018-07-08T04:32:24.343Z,11.60
2018-07-08T04:34:58.193Z,11.70
2018-07-08T04:37:28.028Z,11.80
2018-07-08T04:40:00.189Z,11.90
2018-07-08T04:42:36.212Z,12.00
2018-07-08T04:47:44.316Z,12.20
2018-07-08T04:50:15.208Z,12.20
2018-07-08T04:52:46.064Z,12.40
2018-07-08T04:55:26.020Z,12.50
2018-07-08T04:57:58.220Z,12.70
2018-07-08T05:00:44.080Z,12.90
2018-07-08T05:03:19.499Z,13.10
2018-07-08T05:05:51.628Z,13.40
2018-07-08T05:08:20.540Z,13.60
2018-07-08T05:10:51.439Z,13.90
2018-07-08T05:13:22.268Z,14.10
2018-07-08T05:15:51.083Z,14.30
2018-07-08T05:18:20.936Z,14.50
2018-07-08T05:20:49.831Z,14.70
2018-07-08T05:23:23.216Z,15.00
2018-07-08T05:25:53.985Z,15.30
2018-07-08T05:28:41.180Z,15.60
2018-07-08T05:31:14.228Z,16.00
2018-07-08T05:33:43.100Z,16.40
2018-07-08T05:36:12.952Z,16.70
2018-07-08T05:38:43.772Z,16.80
2018-07-08T05:41:14.580Z,17.00
2018-07-08T05:43:47.732Z,17.30
2018-07-08T05:46:33.688Z,17.60
2018-07-08T05:49:06.132Z,17.70
2018-07-08T05:51:35.944Z,17.90
2018-07-08T05:56:40.496Z,18.40
2018-07-08T05:59:15.324Z,18.70
2018-07-08T06:01:46.048Z,19.10
2018-07-08T06:04:14.860Z,19.50
2018-07-08T06:06:43.741Z,19.70
2018-07-08T06:09:12.652Z,19.80
2018-07-08T06:11:48.716Z,19.90
2018-07-08T06:14:17.540Z,19.80
2018-07-08T06:16:50.842Z,19.60
2018-07-08T06:22:22.748Z,19.40
2018-07-08T06:24:51.588Z,19.50
2018-07-08T06:27:38.256Z,19.90
2018-07-08T06:30:15.424Z,20.30
2018-07-08T06:32:49.844Z,20.60
2018-07-08T06:35:47.920Z,21.10
2018-07-08T06:38:29.075Z,21.40
2018-07-08T06:41:02.144Z,21.40
2018-07-08T06:43:34.020Z,21.40
2018-07-08T06:46:03.832Z,21.40
2018-07-08T06:48:36.720Z,21.60
2018-07-08T06:53:46.024Z,22.00
2018-07-08T06:56:32.827Z,22.10
2018-07-08T06:59:09.168Z,22.10
2018-07-08T07:01:49.091Z,22.20
2018-07-08T07:04:24.547Z,21.80
2018-07-08T07:06:56.580Z,21.90
2018-07-08T07:09:28.448Z,22.00
2018-07-08T07:12:03.000Z,22.10
2018-07-08T07:17:25.433Z,21.60
2018-07-08T07:20:00.148Z,21.50
2018-07-08T07:22:47.740Z,21.60
2018-07-08T07:28:09.748Z,22.10
2018-07-08T07:30:39.575Z,22.70
2018-07-08T07:33:16.350Z,23.00
2018-07-08T07:35:49.724Z,22.80
2018-07-08T07:38:19.559Z,22.60
2018-07-08T07:40:48.400Z,22.80
2018-07-08T07:43:29.228Z,22.80
2018-07-08T07:45:58.115Z,22.80
2018-07-08T07:48:31.676Z,22.80
2018-07-08T07:51:00.488Z,22.90
2018-07-08T07:53:34.476Z,22.90
2018-07-08T07:56:08.684Z,22.40
2018-07-08T07:58:51.352Z,22.40
2018-07-08T08:04:17.256Z,22.70
2018-07-08T08:06:48.088Z,22.80
2018-07-08T08:09:24.452Z,22.60
2018-07-08T08:12:12.936Z,23.20
2018-07-08T08:14:46.500Z,23.10
2018-07-08T08:17:22.888Z,23.50
2018-07-08T08:19:55.424Z,23.80
2018-07-08T08:22:36.140Z,23.20
2018-07-08T08:25:05.934Z,23.30
2018-07-08T08:27:35.749Z,23.70
2018-07-08T08:35:41.920Z,24.40
2018-07-08T08:38:10.774Z,24.50
2018-07-08T08:40:39.612Z,24.30
2018-07-08T08:45:40.180Z,24.70
2018-07-08T08:48:18.512Z,25.20
2018-07-08T08:50:48.296Z,25.30
2018-07-08T08:53:25.604Z,26.10
2018-07-08T08:56:06.220Z,26.00
2018-07-08T08:58:36.940Z,26.40
2018-07-08T09:01:05.739Z,26.50
2018-07-08T09:03:40.340Z,26.10
2018-07-08T09:06:11.042Z,25.70
2018-07-08T09:08:39.899Z,26.10
2018-07-08T09:11:09.773Z,26.20
2018-07-08T09:13:40.428Z,26.60
2018-07-08T09:16:13.399Z,26.90
2018-07-08T09:18:47.860Z,26.80
2018-07-08T09:21:40.224Z,26.70
2018-07-08T09:24:13.712Z,25.60
2018-07-08T09:26:43.595Z,25.20
2018-07-08T09:29:12.407Z,25.50
2018-07-08T09:31:42.076Z,26.30
2018-07-08T09:34:17.372Z,26.40
2018-07-08T09:36:46.123Z,26.90
2018-07-08T09:39:15.792Z,27.30
2018-07-08T09:41:45.104Z,27.50
2018-07-08T09:44:24.691Z,27.50
2018-07-08T09:46:54.447Z,26.20
2018-07-08T09:49:39.723Z,25.50
2018-07-08T09:52:08.527Z,26.50
2018-07-08T09:54:38.235Z,26.00
2018-07-08T09:57:07.975Z,26.40
2018-07-08T09:59:42.615Z,27.70
2018-07-08T10:02:11.486Z,27.10
2018-07-08T10:04:40.290Z,26.50
2018-07-08T10:07:11.095Z,27.60
2018-07-08T10:09:41.911Z,27.80
2018-07-08T10:12:19.255Z,27.50
2018-07-08T10:14:47.991Z,27.70
2018-07-08T10:17:19.971Z,28.50
2018-07-08T10:19:49.092Z,28.80
2018-07-08T10:22:19.600Z,28.60
2018-07-08T10:24:48.364Z,29.00
2018-07-08T10:27:38.923Z,29.40
2018-07-08T10:30:21.165Z,29.80
2018-07-08T10:32:54.735Z,30.60
2018-07-08T10:35:38.144Z,31.00
2018-07-08T10:38:08.203Z,29.90
2018-07-08T10:40:37.963Z,29.20
2018-07-08T10:43:09.032Z,29.50
2018-07-08T10:45:41.508Z,30.40
2018-07-08T10:48:10.276Z,31.30
2018-07-08T10:50:43.000Z,30.60
2018-07-08T10:53:11.891Z,29.20
2018-07-08T10:55:48.118Z,30.60
2018-07-08T10:58:16.995Z,31.60
2018-07-08T11:00:47.732Z,32.00
2018-07-08T11:03:17.619Z,32.70
2018-07-08T11:05:46.523Z,31.20
2018-07-08T11:08:17.335Z,29.60
2018-07-08T11:10:52.352Z,29.00
2018-07-08T11:13:24.471Z,28.40
2018-07-08T11:16:06.415Z,27.20
2018-07-08T11:18:47.151Z,27.40
2018-07-08T11:21:21.719Z,29.10
2018-07-08T11:23:53.847Z,31.40
2018-07-08T11:26:22.572Z,32.90
2018-07-08T11:28:51.315Z,32.40
2018-07-08T11:31:20.031Z,32.20
2018-07-08T11:34:02.195Z,31.60
2018-07-08T11:36:32.934Z,32.40
2018-07-08T11:39:01.698Z,31.90
2018-07-08T11:41:30.551Z,32.90
2018-07-08T11:44:07.523Z,32.50
2018-07-08T11:46:37.243Z,32.90
2018-07-08T11:49:13.071Z,34.00
2018-07-08T11:51:41.791Z,35.40
2018-07-08T11:54:10.559Z,35.60
2018-07-08T11:56:46.975Z,34.90
2018-07-08T11:59:15.911Z,33.80
2018-07-08T12:01:56.828Z,33.10
2018-07-08T12:04:31.150Z,31.70
2018-07-08T12:07:15.887Z,31.90
2018-07-08T12:09:46.767Z,33.80
2018-07-08T12:12:21.325Z,34.40
2018-07-08T12:15:03.698Z,33.10
2018-07-08T12:17:35.807Z,34.80
2018-07-08T12:20:09.863Z,35.10
2018-07-08T12:22:41.608Z,34.30
2018-07-08T12:25:10.463Z,35.10
2018-07-08T12:27:39.298Z,35.20
2018-07-08T12:30:11.467Z,35.70
2018-07-08T12:32:42.179Z,35.50
2018-07-08T12:37:45.903Z,35.30
2018-07-08T12:40:24.310Z,35.10
2018-07-08T12:43:02.679Z,35.50
2018-07-08T12:45:33.443Z,36.10
2018-07-08T12:48:04.155Z,35.70
2018-07-08T12:50:36.447Z,35.90
2018-07-08T12:53:06.422Z,36.70
2018-07-08T12:55:41.143Z,36.90
2018-07-08T12:58:11.916Z,35.90
2018-07-08T13:00:44.492Z,34.90
2018-07-08T13:03:13.270Z,34.40
2018-07-08T13:05:45.127Z,33.10
2018-07-08T13:08:16.976Z,34.30
2018-07-08T13:10:45.766Z,36.50
2018-07-08T13:13:19.883Z,35.60
2018-07-08T13:15:51.962Z,35.70
2018-07-08T13:18:21.014Z,34.60
2018-07-08T13:20:50.838Z,34.20
2018-07-08T13:23:21.583Z,35.60
2018-07-08T13:26:08.980Z,35.80
2018-07-08T13:28:47.373Z,36.30
2018-07-08T13:31:16.214Z,33.90
2018-07-08T13:33:46.952Z,35.20
2018-07-08T13:39:10.305Z,34.40
2018-07-08T13:41:42.774Z,33.90
2018-07-08T13:44:11.586Z,33.10
2018-07-08T13:46:45.970Z,34.00
2018-07-08T13:49:28.294Z,32.80
2018-07-08T13:52:23.566Z,31.50
2018-07-08T13:55:06.014Z,32.90
2018-07-08T13:57:46.082Z,34.80
2018-07-08T14:00:18.563Z,36.10
2018-07-08T14:05:28.259Z,36.30
2018-07-08T14:07:57.107Z,35.00
2018-07-08T14:10:33.935Z,34.30
2018-07-08T14:13:02.770Z,36.20
2018-07-08T14:15:31.695Z,37.00
2018-07-08T14:18:01.422Z,37.90
2018-07-08T14:20:30.310Z,38.50
2018-07-08T14:22:58.983Z,37.40
2018-07-08T14:25:40.536Z,35.20
2018-07-08T14:28:10.247Z,34.70
2018-07-08T14:30:46.618Z,35.30
2018-07-08T14:33:26.598Z,36.70
2018-07-08T14:36:06.260Z,37.50
2018-07-08T14:38:43.070Z,36.70
2018-07-08T14:41:16.124Z,36.00
2018-07-08T14:43:48.396Z,35.70
2018-07-08T14:46:18.216Z,36.70
2018-07-08T14:48:47.886Z,37.20
2018-07-08T14:51:16.642Z,37.20
2018-07-08T14:53:46.354Z,37.00
2018-07-08T14:56:21.962Z,35.80
2018-07-08T14:58:50.934Z,37.10
2018-07-08T15:01:19.924Z,37.90
2018-07-08T15:06:46.163Z,38.80
2018-07-08T15:12:17.454Z,40.20
2018-07-08T15:14:46.154Z,38.30
2018-07-08T15:17:19.630Z,35.60
2018-07-08T15:19:51.584Z,35.10
2018-07-08T15:22:32.666Z,35.60
2018-07-08T15:25:03.498Z,35.80
2018-07-08T15:27:33.302Z,35.90
2018-07-08T15:30:03.090Z,34.70
2018-07-08T15:32:45.167Z,34.40
2018-07-08T15:35:18.874Z,35.00
2018-07-08T15:37:58.334Z,35.30
2018-07-08T15:40:28.114Z,35.40
2018-07-08T15:43:02.911Z,34.60
2018-07-08T15:45:33.630Z,33.30
2018-07-08T15:48:06.191Z,32.90
2018-07-08T15:50:39.727Z,32.80
2018-07-08T15:53:08.609Z,33.30
2018-07-08T15:55:37.439Z,33.50
2018-07-08T15:58:11.970Z,35.10
2018-07-08T16:00:45.738Z,36.40
2018-07-08T16:03:20.919Z,37.50
2018-07-08T16:05:54.217Z,38.10
2018-07-08T16:08:24.963Z,37.50
2018-07-08T16:11:04.710Z,36.30
2018-07-08T16:13:33.475Z,32.70
2018-07-08T16:16:09.447Z,32.60
2018-07-08T16:18:41.952Z,32.80
2018-07-08T16:23:45.722Z,35.10
2018-07-08T16:26:22.483Z,34.90
2018-07-08T16:28:51.230Z,34.40
2018-07-08T16:31:20.974Z,32.60
2018-07-08T16:33:51.718Z,31.90
2018-07-08T16:36:20.442Z,32.20
2018-07-08T16:38:50.223Z,31.20
2018-07-08T16:41:27.922Z,30.10
2018-07-08T16:44:02.273Z,30.00
2018-07-08T16:46:37.014Z,30.30
2018-07-08T16:49:07.752Z,30.20
2018-07-08T16:51:37.538Z,30.30
2018-07-08T16:54:19.054Z,30.10
2018-07-08T16:56:48.990Z,30.40
2018-07-08T16:59:21.562Z,30.70
2018-07-08T17:01:57.150Z,30.60
2018-07-08T17:04:30.118Z,31.40
2018-07-08T17:07:03.111Z,31.20
2018-07-08T17:09:34.964Z,30.30
2018-07-08T17:12:08.942Z,29.90
2018-07-08T17:14:37.678Z,28.80
2018-07-08T17:17:09.562Z,28.20
2018-07-08T17:19:42.062Z,28.30
2018-07-08T17:22:24.116Z,27.60
2018-07-08T17:25:02.402Z,27.30
2018-07-08T17:27:31.210Z,26.80
2018-07-08T17:30:00.927Z,27.10
2018-07-08T17:32:48.670Z,26.70
2018-07-08T17:35:23.686Z,26.40
2018-07-08T17:37:54.438Z,26.20
2018-07-08T17:40:25.234Z,26.10
2018-07-08T17:43:05.198Z,25.90
2018-07-08T17:45:33.970Z,25.80
2018-07-08T17:48:15.446Z,25.60
2018-07-08T17:50:44.210Z,25.50
2018-07-08T17:53:23.519Z,25.20
2018-07-08T17:55:56.777Z,25.00
2018-07-08T17:58:25.507Z,24.90
2018-07-08T18:00:54.322Z,24.90
2018-07-08T18:03:23.188Z,24.90
2018-07-08T18:05:55.354Z,24.90
2018-07-08T18:08:24.201Z,24.90
2018-07-08T18:10:52.982Z,24.90
2018-07-08T18:13:21.721Z,24.80
2018-07-08T18:16:00.437Z,24.80
2018-07-08T18:18:31.209Z,24.70
2018-07-08T18:21:06.610Z,24.50
2018-07-08T18:23:39.786Z,24.30
2018-07-08T18:26:20.781Z,24.20
2018-07-08T18:28:53.529Z,24.10
2018-07-08T18:31:23.285Z,24.00
2018-07-08T18:33:53.988Z,23.90
2018-07-08T18:36:24.818Z,23.80
2018-07-08T18:39:00.473Z,23.70
2018-07-08T18:41:35.061Z,23.60
2018-07-08T18:44:06.918Z,23.50
2018-07-08T18:46:35.707Z,23.50
2018-07-08T18:49:04.534Z,23.40
2018-07-08T18:51:37.109Z,23.30
2018-07-08T18:54:18.521Z,23.20
2018-07-08T18:56:47.333Z,23.20
2018-07-08T18:59:16.157Z,23.10
2018-07-08T19:01:44.905Z,23.00
2018-07-08T19:04:15.053Z,22.90
2018-07-08T19:06:44.809Z,22.80
2018-07-08T19:09:13.654Z,22.70
2018-07-08T19:11:42.422Z,22.50
2018-07-08T19:14:12.169Z,22.30
2018-07-08T19:16:45.525Z,22.10
2018-07-08T19:19:20.813Z,22.00
2018-07-08T19:21:51.553Z,21.80
2018-07-08T19:24:20.492Z,21.60
2018-07-08T19:26:49.281Z,21.40
2018-07-08T19:29:18.029Z,21.30
2018-07-08T19:31:55.029Z,21.20
2018-07-08T19:34:42.414Z,21.00
2018-07-08T19:37:15.073Z,20.90
2018-07-08T19:39:43.837Z,20.80
2018-07-08T19:42:16.733Z,20.70
2018-07-08T19:44:45.486Z,20.60
2018-07-08T19:47:19.810Z,20.50
2018-07-08T19:49:49.825Z,20.40
2018-07-08T19:52:27.735Z,20.30
2018-07-08T19:54:58.357Z,20.20
2018-07-08T19:57:32.649Z,20.10
2018-07-08T20:00:01.405Z,20.10
2018-07-08T20:02:30.174Z,20.00
2018-07-08T20:04:58.977Z,19.90
2018-07-08T20:07:27.824Z,19.90
2018-07-08T20:09:57.426Z,19.80
2018-07-08T20:12:28.161Z,19.80
2018-07-08T20:14:56.957Z,19.70
2018-07-08T20:17:25.695Z,19.70
2018-07-08T20:20:00.829Z,19.60
2018-07-08T20:22:29.573Z,19.50
2018-07-08T20:25:04.565Z,19.50
2018-07-08T20:27:36.793Z,19.40
2018-07-08T20:30:05.766Z,19.30
2018-07-08T20:32:39.565Z,19.30
2018-07-08T20:35:28.838Z,19.30
2018-07-08T20:38:14.090Z,19.20
2018-07-08T20:40:42.925Z,19.20
2018-07-08T20:43:19.521Z,19.20
2018-07-08T20:45:48.311Z,19.20
2018-07-08T20:48:21.885Z,19.20
2018-07-08T20:50:51.734Z,19.20
2018-07-08T20:53:20.569Z,19.30
2018-07-08T20:55:49.401Z,19.30
2018-07-08T20:58:19.789Z,19.30
2018-07-08T21:00:52.556Z,19.30
2018-07-08T21:03:23.345Z,19.30
2018-07-08T21:05:52.137Z,19.30
2018-07-08T21:08:20.987Z,19.20
2018-07-08T21:10:53.390Z,19.20
2018-07-08T21:15:51.821Z,19.30
2018-07-08T21:18:20.657Z,19.30
2018-07-08T21:20:53.741Z,19.30
2018-07-08T21:23:22.809Z,19.10
2018-07-08T21:25:52.675Z,19.00
2018-07-08T21:28:29.173Z,18.90
2018-07-08T21:30:59.968Z,18.90
2018-07-08T21:33:28.761Z,18.80
2018-07-08T21:35:59.680Z,18.80
2018-07-08T21:38:29.129Z,18.70
2018-07-08T21:41:02.488Z,18.70
2018-07-08T21:43:33.041Z,18.60
2018-07-08T21:46:01.822Z,18.60
2018-07-08T21:48:30.749Z,18.40
2018-07-08T21:51:02.901Z,18.30
2018-07-08T21:53:31.681Z,18.10
2018-07-08T21:56:01.501Z,18.00
2018-07-08T21:58:31.265Z,17.90
2018-07-08T22:01:15.713Z,17.90
2018-07-08T22:03:45.173Z,17.90
2018-07-08T22:06:16.821Z,17.90
2018-07-08T22:08:45.681Z,17.90
2018-07-08T22:11:15.545Z,18.00
2018-07-08T22:13:44.657Z,17.90
2018-07-08T22:16:13.453Z,17.80
2018-07-08T22:18:43.269Z,17.80
2018-07-08T22:21:12.077Z,17.80
2018-07-08T22:23:40.892Z,17.80
2018-07-08T22:26:13.573Z,17.90
2018-07-08T22:28:43.361Z,17.90
2018-07-08T22:31:19.122Z,18.00
2018-07-08T22:33:47.886Z,18.00
2018-07-08T22:36:30.146Z,18.00
2018-07-08T22:38:58.996Z,18.00
2018-07-08T22:41:30.973Z,18.00
2018-07-08T22:44:00.769Z,17.90
2018-07-08T22:46:31.924Z,17.80
2018-07-08T22:49:07.785Z,17.70
2018-07-08T22:51:37.556Z,17.60
2018-07-08T22:54:08.453Z,17.50
2018-07-08T22:56:37.412Z,17.40
2018-07-08T22:59:06.292Z,17.30
2018-07-08T23:01:48.500Z,17.20
2018-07-08T23:04:17.400Z,17.10
2018-07-08T23:06:46.276Z,17.00
2018-07-08T23:09:15.292Z,16.90
2018-07-08T23:11:48.740Z,16.80
2018-07-08T23:14:21.691Z,16.70
2018-07-08T23:16:56.808Z,16.70
2018-07-08T23:19:26.616Z,16.70
2018-07-08T23:21:55.508Z,16.60
2018-07-08T23:24:30.116Z,16.40
2018-07-08T23:27:09.404Z,16.20
2018-07-08T23:29:43.696Z,16.00
2018-07-08T23:32:16.440Z,15.90
2018-07-08T23:34:46.256Z,15.70
2018-07-08T23:37:29.196Z,15.50
2018-07-08T23:40:10.916Z,15.40
2018-07-08T23:42:43.040Z,15.30
2018-07-08T23:45:18.472Z,15.30
2018-07-08T23:47:55.256Z,15.20
2018-07-08T23:50:25.030Z,15.10
2018-07-08T23:52:53.967Z,15.10
2018-07-08T23:55:22.824Z,15.10
